Terminal Aerodrome Forecast
Issued by NWS Blacksburg, VA

Current Version | Previous Version | Text Only | Print | Product List | Glossary On
Versions: 1 2 3 4 5 6 7 8 9 10 11 12 13 14 15 16 17 18 19 20 21 22 23 24
000
FTUS41 KRNK 012343
TAFDAN
TAF
KDAN 012343Z 0200/0224 00000KT P6SM BKN250
     FM020200 23005KT P6SM BKN060
      TEMPO 0202/0206 -SHRA
     FM020600 VRB03KT P6SM -SHRA BKN040
     FM021200 26004KT P6SM VCSH OVC060
     FM022200 26009KT 6SM -SHRA VCTS OVC050CB=

USA.gov is the U.S. government's official web portal to all federal, state and local government web resources and services.